sensor_id;sensor_type;location;lat;lon;timestamp;pressure;altitude;pressure_sealevel;temperature;humidity
38812;BME280;24553;51.640;-0.752;2023-02-21T00:01:51;101346.75;;;11.04;100.00
38812;BME280;24553;51.640;-0.752;2023-02-21T00:04:35;101342.91;;;11.07;100.00
38812;BME280;24553;51.640;-0.752;2023-02-21T00:07:19;101341.91;;;11.16;100.00
38812;BME280;24553;51.640;-0.752;2023-02-21T00:10:04;101345.84;;;11.20;100.00
38812;BME280;24553;51.640;-0.752;2023-02-21T00:12:48;101350.88;;;11.07;100.00
38812;BME280;24553;51.640;-0.752;2023-02-21T00:15:32;101351.13;;;10.89;100.00
38812;BME280;24553;51.640;-0.752;2023-02-21T00:18:17;101349.78;;;10.93;100.00
38812;BME280;24553;51.640;-0.752;2023-02-21T00:21:01;101350.25;;;10.97;100.00
38812;BME280;24553;51.640;-0.752;2023-02-21T00:23:45;101355.88;;;11.02;100.00
38812;BME280;24553;51.640;-0.752;2023-02-21T00:26:29;101349.03;;;11.16;100.00
38812;BME280;24553;51.640;-0.752;2023-02-21T00:29:13;101350.38;;;11.11;100.00
38812;BME280;24553;51.640;-0.752;2023-02-21T00:31:56;101352.75;;;10.98;100.00
38812;BME280;24553;51.640;-0.752;2023-02-21T00:34:41;101352.75;;;10.98;100.00
38812;BME280;24553;51.640;-0.752;2023-02-21T00:37:25;101355.97;;;10.85;100.00
38812;BME280;24553;51.640;-0.752;2023-02-21T00:40:13;101353.47;;;10.92;100.00
38812;BME280;24553;51.640;-0.752;2023-02-21T00:42:57;101351.78;;;10.91;100.00
38812;BME280;24553;51.640;-0.752;2023-02-21T00:45:41;101344.84;;;10.90;100.00
38812;BME280;24553;51.640;-0.752;2023-02-21T00:48:26;101349.47;;;10.88;100.00
38812;BME280;24553;51.640;-0.752;2023-02-21T00:51:10;101351.22;;;10.64;100.00
38812;BME280;24553;51.640;-0.752;2023-02-21T00:53:54;101347.25;;;10.52;100.00
38812;BME280;24553;51.640;-0.752;2023-02-21T00:56:38;101345.19;;;10.87;100.00
38812;BME280;24553;51.640;-0.752;2023-02-21T00:59:22;101338.09;;;10.79;100.00
38812;BME280;24553;51.640;-0.752;2023-02-21T01:02:06;101328.72;;;10.91;100.00
38812;BME280;24553;51.640;-0.752;2023-02-21T01:04:50;101326.22;;;10.98;100.00
38812;BME280;24553;51.640;-0.752;2023-02-21T01:07:34;101325.91;;;10.93;100.00
38812;BME280;24553;51.640;-0.752;2023-02-21T01:10:18;101326.63;;;10.87;100.00
38812;BME280;24553;51.640;-0.752;2023-02-21T01:13:03;101320.69;;;10.68;100.00
38812;BME280;24553;51.640;-0.752;2023-02-21T01:15:46;101317.22;;;10.68;100.00
38812;BME280;24553;51.640;-0.752;2023-02-21T01:18:30;101316.88;;;10.71;100.00
38812;BME280;24553;51.640;-0.752;2023-02-21T01:21:16;101313.59;;;10.69;100.00
38812;BME280;24553;51.640;-0.752;2023-02-21T01:24:00;101312.56;;;10.70;100.00
38812;BME280;24553;51.640;-0.752;2023-02-21T01:26:44;101312.44;;;10.55;100.00
38812;BME280;24553;51.640;-0.752;2023-02-21T01:29:29;101313.63;;;10.53;100.00
38812;BME280;24553;51.640;-0.752;2023-02-21T01:32:13;101307.16;;;10.47;100.00
38812;BME280;24553;51.640;-0.752;2023-02-21T01:34:57;101314.28;;;10.55;100.00
38812;BME280;24553;51.640;-0.752;2023-02-21T01:37:41;101315.28;;;10.54;100.00
38812;BME280;24553;51.640;-0.752;2023-02-21T01:40:25;101314.63;;;10.52;100.00
38812;BME280;24553;51.640;-0.752;2023-02-21T01:43:18;101311.97;;;10.52;100.00
38812;BME280;24553;51.640;-0.752;2023-02-21T01:46:02;101308.84;;;10.40;100.00
38812;BME280;24553;51.640;-0.752;2023-02-21T01:48:48;101309.47;;;10.50;100.00
38812;BME280;24553;51.640;-0.752;2023-02-21T01:51:37;101305.38;;;10.39;100.00
38812;BME280;24553;51.640;-0.752;2023-02-21T01:54:22;101302.88;;;10.46;100.00
38812;BME280;24553;51.640;-0.752;2023-02-21T01:57:08;101305.16;;;10.57;100.00
38812;BME280;24553;51.640;-0.752;2023-02-21T01:59:55;101293.75;;;10.48;100.00
38812;BME280;24553;51.640;-0.752;2023-02-21T02:03:02;101292.91;;;10.56;100.00
38812;BME280;24553;51.640;-0.752;2023-02-21T02:06:00;101291.75;;;10.59;100.00
38812;BME280;24553;51.640;-0.752;2023-02-21T02:08:45;101283.91;;;10.65;100.00
38812;BME280;24553;51.640;-0.752;2023-02-21T02:18:01;101273.34;;;10.57;100.00
38812;BME280;24553;51.640;-0.752;2023-02-21T02:20:52;101270.53;;;10.51;100.00
38812;BME280;24553;51.640;-0.752;2023-02-21T02:35:05;101252.78;;;10.59;100.00
38812;BME280;24553;51.640;-0.752;2023-02-21T02:37:54;101250.47;;;10.56;100.00
38812;BME280;24553;51.640;-0.752;2023-02-21T02:40:34;101245.53;;;10.45;100.00
38812;BME280;24553;51.640;-0.752;2023-02-21T02:45:56;101245.03;;;10.50;100.00
38812;BME280;24553;51.640;-0.752;2023-02-21T02:48:35;101252.81;;;10.51;100.00
38812;BME280;24553;51.640;-0.752;2023-02-21T02:51:05;101241.06;;;10.45;100.00
38812;BME280;24553;51.640;-0.752;2023-02-21T02:53:32;101244.88;;;10.51;100.00
38812;BME280;24553;51.640;-0.752;2023-02-21T02:56:02;101238.38;;;10.54;100.00
38812;BME280;24553;51.640;-0.752;2023-02-21T02:58:58;101237.94;;;10.42;100.00
38812;BME280;24553;51.640;-0.752;2023-02-21T03:04:30;101235.81;;;10.29;100.00
38812;BME280;24553;51.640;-0.752;2023-02-21T03:15:19;101234.91;;;10.45;100.00
38812;BME280;24553;51.640;-0.752;2023-02-21T03:18:02;101243.09;;;10.35;100.00
38812;BME280;24553;51.640;-0.752;2023-02-21T03:20:32;101234.81;;;10.14;100.00
38812;BME280;24553;51.640;-0.752;2023-02-21T03:22:59;101231.69;;;10.10;100.00
38812;BME280;24553;51.640;-0.752;2023-02-21T03:25:28;101230.38;;;10.06;100.00
38812;BME280;24553;51.640;-0.752;2023-02-21T03:27:56;101224.56;;;10.11;100.00
38812;BME280;24553;51.640;-0.752;2023-02-21T03:30:24;101222.28;;;9.99;100.00
38812;BME280;24553;51.640;-0.752;2023-02-21T03:32:51;101216.16;;;9.99;100.00
38812;BME280;24553;51.640;-0.752;2023-02-21T03:35:19;101215.22;;;9.51;100.00
38812;BME280;24553;51.640;-0.752;2023-02-21T03:37:47;101206.56;;;9.90;100.00
38812;BME280;24553;51.640;-0.752;2023-02-21T03:40:18;101204.91;;;9.97;100.00
38812;BME280;24553;51.640;-0.752;2023-02-21T03:42:44;101199.09;;;10.01;100.00
38812;BME280;24553;51.640;-0.752;2023-02-21T03:45:10;101208.53;;;10.12;100.00
38812;BME280;24553;51.640;-0.752;2023-02-21T03:47:35;101201.53;;;10.28;100.00
38812;BME280;24553;51.640;-0.752;2023-02-21T03:50:01;101209.88;;;9.92;100.00
38812;BME280;24553;51.640;-0.752;2023-02-21T03:52:26;101208.25;;;9.82;100.00
38812;BME280;24553;51.640;-0.752;2023-02-21T03:54:51;101201.09;;;9.99;100.00
38812;BME280;24553;51.640;-0.752;2023-02-21T03:57:17;101198.44;;;9.99;100.00
38812;BME280;24553;51.640;-0.752;2023-02-21T03:59:42;101201.59;;;9.95;100.00
38812;BME280;24553;51.640;-0.752;2023-02-21T04:02:08;101201.63;;;9.87;100.00
38812;BME280;24553;51.640;-0.752;2023-02-21T04:04:33;101199.63;;;9.80;100.00
38812;BME280;24553;51.640;-0.752;2023-02-21T04:06:58;101199.81;;;9.79;100.00
38812;BME280;24553;51.640;-0.752;2023-02-21T04:09:24;101208.41;;;9.89;100.00
38812;BME280;24553;51.640;-0.752;2023-02-21T04:11:51;101209.72;;;9.93;100.00
38812;BME280;24553;51.640;-0.752;2023-02-21T04:14:16;101200.97;;;9.85;100.00
38812;BME280;24553;51.640;-0.752;2023-02-21T04:16:41;101202.28;;;9.80;100.00
38812;BME280;24553;51.640;-0.752;2023-02-21T04:19:07;101197.66;;;9.74;100.00
38812;BME280;24553;51.640;-0.752;2023-02-21T04:21:32;101199.66;;;9.72;100.00
38812;BME280;24553;51.640;-0.752;2023-02-21T04:23:57;101194.03;;;9.67;100.00
38812;BME280;24553;51.640;-0.752;2023-02-21T04:26:23;101191.41;;;9.59;100.00
38812;BME280;24553;51.640;-0.752;2023-02-21T04:28:51;101196.38;;;9.46;100.00
38812;BME280;24553;51.640;-0.752;2023-02-21T04:31:17;101193.22;;;9.34;100.00
38812;BME280;24553;51.640;-0.752;2023-02-21T04:33:43;101194.56;;;9.38;100.00
38812;BME280;24553;51.640;-0.752;2023-02-21T04:36:08;101193.69;;;9.21;100.00
38812;BME280;24553;51.640;-0.752;2023-02-21T04:38:34;101184.47;;;9.25;100.00
38812;BME280;24553;51.640;-0.752;2023-02-21T04:41:02;101178.16;;;9.18;100.00
38812;BME280;24553;51.640;-0.752;2023-02-21T04:43:27;101183.47;;;9.10;100.00
38812;BME280;24553;51.640;-0.752;2023-02-21T04:45:52;101183.78;;;8.99;100.00
38812;BME280;24553;51.640;-0.752;2023-02-21T04:48:18;101197.81;;;8.91;100.00
38812;BME280;24553;51.640;-0.752;2023-02-21T04:50:44;101196.16;;;8.90;100.00
38812;BME280;24553;51.640;-0.752;2023-02-21T04:53:10;101188.91;;;9.00;100.00
38812;BME280;24553;51.640;-0.752;2023-02-21T04:55:35;101178.31;;;9.08;100.00
38812;BME280;24553;51.640;-0.752;2023-02-21T04:58:00;101179.31;;;9.07;100.00
38812;BME280;24553;51.640;-0.752;2023-02-21T05:00:26;101178.50;;;9.07;100.00
38812;BME280;24553;51.640;-0.752;2023-02-21T05:02:51;101168.88;;;9.06;100.00
38812;BME280;24553;51.640;-0.752;2023-02-21T05:05:16;101171.56;;;9.14;100.00
38812;BME280;24553;51.640;-0.752;2023-02-21T05:07:42;101178.97;;;9.18;100.00
38812;BME280;24553;51.640;-0.752;2023-02-21T05:10:08;101177.34;;;9.26;100.00
38812;BME280;24553;51.640;-0.752;2023-02-21T05:12:34;101186.63;;;9.22;100.00
38812;BME280;24553;51.640;-0.752;2023-02-21T05:15:00;101183.31;;;9.11;100.00
38812;BME280;24553;51.640;-0.752;2023-02-21T05:17:25;101179.81;;;9.03;100.00
38812;BME280;24553;51.640;-0.752;2023-02-21T05:19:52;101182.63;;;9.01;100.00
38812;BME280;24553;51.640;-0.752;2023-02-21T05:22:19;101189.22;;;8.89;100.00
38812;BME280;24553;51.640;-0.752;2023-02-21T05:24:45;101174.03;;;8.91;100.00
38812;BME280;24553;51.640;-0.752;2023-02-21T05:27:11;101178.97;;;9.02;100.00
38812;BME280;24553;51.640;-0.752;2023-02-21T05:29:40;101170.72;;;9.13;100.00
38812;BME280;24553;51.640;-0.752;2023-02-21T05:32:05;101175.19;;;9.13;100.00
38812;BME280;24553;51.640;-0.752;2023-02-21T05:34:30;101167.25;;;9.21;100.00
38812;BME280;24553;51.640;-0.752;2023-02-21T05:36:56;101174.69;;;9.26;100.00
38812;BME280;24553;51.640;-0.752;2023-02-21T05:39:21;101170.56;;;9.23;100.00
38812;BME280;24553;51.640;-0.752;2023-02-21T05:41:47;101169.06;;;9.12;100.00
38812;BME280;24553;51.640;-0.752;2023-02-21T05:44:13;101170.56;;;9.15;100.00
38812;BME280;24553;51.640;-0.752;2023-02-21T05:46:39;101170.75;;;9.22;100.00
38812;BME280;24553;51.640;-0.752;2023-02-21T05:49:04;101159.31;;;9.21;100.00
38812;BME280;24553;51.640;-0.752;2023-02-21T05:51:38;101160.81;;;9.15;100.00
38812;BME280;24553;51.640;-0.752;2023-02-21T05:54:05;101157.34;;;9.15;100.00
38812;BME280;24553;51.640;-0.752;2023-02-21T05:56:37;101157.00;;;9.18;100.00
38812;BME280;24553;51.640;-0.752;2023-02-21T05:59:03;101162.63;;;9.23;100.00
38812;BME280;24553;51.640;-0.752;2023-02-21T06:01:28;101153.88;;;9.23;100.00
38812;BME280;24553;51.640;-0.752;2023-02-21T06:03:54;101155.00;;;9.28;100.00
38812;BME280;24553;51.640;-0.752;2023-02-21T06:06:19;101147.09;;;9.12;100.00
38812;BME280;24553;51.640;-0.752;2023-02-21T06:08:48;101149.56;;;9.13;100.00
38812;BME280;24553;51.640;-0.752;2023-02-21T06:11:20;101144.09;;;9.15;100.00
38812;BME280;24553;51.640;-0.752;2023-02-21T06:13:49;101139.97;;;9.12;100.00
38812;BME280;24553;51.640;-0.752;2023-02-21T06:16:14;101142.28;;;9.15;100.00
38812;BME280;24553;51.640;-0.752;2023-02-21T06:18:40;101143.94;;;9.16;100.00
38812;BME280;24553;51.640;-0.752;2023-02-21T06:21:05;101146.75;;;9.15;100.00
38812;BME280;24553;51.640;-0.752;2023-02-21T06:23:30;101151.88;;;9.16;100.00
38812;BME280;24553;51.640;-0.752;2023-02-21T06:25:56;101152.88;;;9.07;100.00
38812;BME280;24553;51.640;-0.752;2023-02-21T06:28:21;101152.69;;;8.92;100.00
38812;BME280;24553;51.640;-0.752;2023-02-21T06:30:51;101158.97;;;8.83;100.00
38812;BME280;24553;51.640;-0.752;2023-02-21T06:33:16;101153.97;;;8.80;100.00
38812;BME280;24553;51.640;-0.752;2023-02-21T06:35:41;101154.03;;;8.88;100.00
38812;BME280;24553;51.640;-0.752;2023-02-21T06:38:07;101159.47;;;8.87;100.00
38812;BME280;24553;51.640;-0.752;2023-02-21T06:40:32;101162.78;;;8.89;100.00
38812;BME280;24553;51.640;-0.752;2023-02-21T06:42:57;101164.88;;;8.77;100.00
38812;BME280;24553;51.640;-0.752;2023-02-21T06:45:23;101162.25;;;8.85;100.00
38812;BME280;24553;51.640;-0.752;2023-02-21T06:47:48;101168.88;;;8.73;100.00
38812;BME280;24553;51.640;-0.752;2023-02-21T06:50:13;101162.56;;;8.66;100.00
38812;BME280;24553;51.640;-0.752;2023-02-21T06:52:39;101166.34;;;8.63;100.00
38812;BME280;24553;51.640;-0.752;2023-02-21T06:55:04;101160.06;;;8.64;100.00
38812;BME280;24553;51.640;-0.752;2023-02-21T06:57:30;101163.38;;;8.66;100.00
38812;BME280;24553;51.640;-0.752;2023-02-21T06:59:55;101157.06;;;8.59;100.00
38812;BME280;24553;51.640;-0.752;2023-02-21T07:02:20;101159.09;;;8.65;100.00
38812;BME280;24553;51.640;-0.752;2023-02-21T07:04:46;101164.22;;;8.75;100.00
38812;BME280;24553;51.640;-0.752;2023-02-21T07:07:11;101160.41;;;8.78;100.00
38812;BME280;24553;51.640;-0.752;2023-02-21T07:09:37;101163.56;;;8.73;100.00
38812;BME280;24553;51.640;-0.752;2023-02-21T07:12:02;101154.31;;;8.77;100.00
38812;BME280;24553;51.640;-0.752;2023-02-21T07:14:28;101162.44;;;8.76;100.00
38812;BME280;24553;51.640;-0.752;2023-02-21T07:16:53;101156.28;;;8.75;100.00
38812;BME280;24553;51.640;-0.752;2023-02-21T07:19:19;101163.56;;;8.65;100.00
38812;BME280;24553;51.640;-0.752;2023-02-21T07:21:44;101162.72;;;8.64;100.00
38812;BME280;24553;51.640;-0.752;2023-02-21T07:24:09;101159.44;;;8.70;100.00
38812;BME280;24553;51.640;-0.752;2023-02-21T07:26:35;101154.31;;;8.85;100.00
38812;BME280;24553;51.640;-0.752;2023-02-21T07:29:02;101154.66;;;8.90;100.00
38812;BME280;24553;51.640;-0.752;2023-02-21T07:31:28;101164.25;;;8.91;100.00
38812;BME280;24553;51.640;-0.752;2023-02-21T07:33:53;101153.69;;;8.91;100.00
38812;BME280;24553;51.640;-0.752;2023-02-21T07:36:18;101162.63;;;8.99;100.00
38812;BME280;24553;51.640;-0.752;2023-02-21T07:38:44;101153.69;;;9.00;100.00
38812;BME280;24553;51.640;-0.752;2023-02-21T07:41:09;101162.44;;;9.00;100.00
38812;BME280;24553;51.640;-0.752;2023-02-21T07:43:34;101157.63;;;8.95;100.00
38812;BME280;24553;51.640;-0.752;2023-02-21T07:46:00;101161.97;;;8.97;100.00
38812;BME280;24553;51.640;-0.752;2023-02-21T07:48:25;101157.16;;;8.92;100.00
38812;BME280;24553;51.640;-0.752;2023-02-21T07:50:51;101163.25;;;8.92;100.00
38812;BME280;24553;51.640;-0.752;2023-02-21T07:53:16;101157.63;;;8.95;100.00
38812;BME280;24553;51.640;-0.752;2023-02-21T07:55:42;101165.28;;;8.99;100.00
38812;BME280;24553;51.640;-0.752;2023-02-21T07:58:07;101165.91;;;9.01;100.00
38812;BME280;24553;51.640;-0.752;2023-02-21T08:00:33;101171.53;;;8.98;100.00
38812;BME280;24553;51.640;-0.752;2023-02-21T08:02:59;101170.72;;;9.05;100.00
38812;BME280;24553;51.640;-0.752;2023-02-21T08:05:24;101162.97;;;9.12;100.00
38812;BME280;24553;51.640;-0.752;2023-02-21T08:07:50;101163.13;;;9.10;100.00
38812;BME280;24553;51.640;-0.752;2023-02-21T08:10:24;101166.59;;;9.11;100.00
38812;BME280;24553;51.640;-0.752;2023-02-21T08:12:50;101168.59;;;9.17;100.00
38812;BME280;24553;51.640;-0.752;2023-02-21T08:15:15;101158.66;;;9.19;100.00
38812;BME280;24553;51.640;-0.752;2023-02-21T08:17:40;101152.03;;;9.31;100.00
38812;BME280;24553;51.640;-0.752;2023-02-21T08:20:06;101155.50;;;9.48;100.00
38812;BME280;24553;51.640;-0.752;2023-02-21T08:22:32;101147.69;;;9.55;100.00
38812;BME280;24553;51.640;-0.752;2023-02-21T08:24:57;101151.00;;;9.65;100.00
38812;BME280;24553;51.640;-0.752;2023-02-21T08:27:23;101153.66;;;9.65;100.00
38812;BME280;24553;51.640;-0.752;2023-02-21T08:29:49;101147.19;;;9.68;100.00
38812;BME280;24553;51.640;-0.752;2023-02-21T08:32:15;101150.69;;;9.68;100.00
38812;BME280;24553;51.640;-0.752;2023-02-21T08:34:44;101145.03;;;9.79;100.00
38812;BME280;24553;51.640;-0.752;2023-02-21T08:37:09;101151.81;;;9.82;100.00
38812;BME280;24553;51.640;-0.752;2023-02-21T08:39:44;101156.94;;;9.83;100.00
38812;BME280;24553;51.640;-0.752;2023-02-21T08:42:10;101159.56;;;9.92;100.00
38812;BME280;24553;51.640;-0.752;2023-02-21T08:44:36;101158.88;;;9.98;100.00
38812;BME280;24553;51.640;-0.752;2023-02-21T08:47:01;101158.53;;;10.01;100.00
38812;BME280;24553;51.640;-0.752;2023-02-21T08:49:26;101164.31;;;9.96;100.00
38812;BME280;24553;51.640;-0.752;2023-02-21T08:51:52;101162.69;;;9.95;100.00
38812;BME280;24553;51.640;-0.752;2023-02-21T08:54:19;101163.69;;;9.94;100.00
38812;BME280;24553;51.640;-0.752;2023-02-21T08:56:44;101159.22;;;9.95;100.00
38812;BME280;24553;51.640;-0.752;2023-02-21T08:59:10;101162.88;;;9.86;100.00
38812;BME280;24553;51.640;-0.752;2023-02-21T09:01:35;101167.22;;;9.78;100.00
38812;BME280;24553;51.640;-0.752;2023-02-21T09:04:03;101165.25;;;9.64;100.00
38812;BME280;24553;51.640;-0.752;2023-02-21T09:06:28;101159.94;;;9.64;100.00
38812;BME280;24553;51.640;-0.752;2023-02-21T09:08:55;101163.91;;;9.68;100.00
38812;BME280;24553;51.640;-0.752;2023-02-21T09:11:20;101166.91;;;9.73;100.00
38812;BME280;24553;51.640;-0.752;2023-02-21T09:13:45;101175.81;;;9.89;100.00
38812;BME280;24553;51.640;-0.752;2023-02-21T09:16:11;101177.03;;;10.09;100.00
38812;BME280;24553;51.640;-0.752;2023-02-21T09:18:36;101168.22;;;10.17;100.00
38812;BME280;24553;51.640;-0.752;2023-02-21T09:21:02;101165.72;;;10.23;100.00
38812;BME280;24553;51.640;-0.752;2023-02-21T09:23:29;101162.25;;;10.31;100.00
38812;BME280;24553;51.640;-0.752;2023-02-21T09:25:55;101156.78;;;10.33;100.00
38812;BME280;24553;51.640;-0.752;2023-02-21T09:28:21;101157.44;;;10.35;100.00
38812;BME280;24553;51.640;-0.752;2023-02-21T09:30:47;101153.66;;;10.29;100.00
38812;BME280;24553;51.640;-0.752;2023-02-21T09:33:13;101148.53;;;10.28;100.00
38812;BME280;24553;51.640;-0.752;2023-02-21T09:35:39;101153.84;;;10.28;100.00
38812;BME280;24553;51.640;-0.752;2023-02-21T09:38:05;101151.63;;;10.39;100.00
38812;BME280;24553;51.640;-0.752;2023-02-21T09:40:43;101145.97;;;10.42;100.00
38812;BME280;24553;51.640;-0.752;2023-02-21T09:43:20;101141.25;;;10.53;100.00
38812;BME280;24553;51.640;-0.752;2023-02-21T09:45:54;101130.50;;;10.54;100.00
38812;BME280;24553;51.640;-0.752;2023-02-21T09:48:21;101128.84;;;10.76;100.00
38812;BME280;24553;51.640;-0.752;2023-02-21T09:50:56;101122.44;;;10.70;100.00
38812;BME280;24553;51.640;-0.752;2023-02-21T09:53:27;101118.06;;;10.78;100.00
38812;BME280;24553;51.640;-0.752;2023-02-21T09:55:55;101116.53;;;10.60;100.00
38812;BME280;24553;51.640;-0.752;2023-02-21T09:58:21;101117.22;;;10.54;100.00
38812;BME280;24553;51.640;-0.752;2023-02-21T10:00:47;101120.84;;;10.61;100.00
38812;BME280;24553;51.640;-0.752;2023-02-21T10:03:25;101112.41;;;10.58;100.00
38812;BME280;24553;51.640;-0.752;2023-02-21T10:06:05;101113.22;;;10.58;100.00
38812;BME280;24553;51.640;-0.752;2023-02-21T10:08:43;101114.94;;;10.51;100.00
38812;BME280;24553;51.640;-0.752;2023-02-21T10:11:34;101117.88;;;10.56;100.00
38812;BME280;24553;51.640;-0.752;2023-02-21T10:14:22;101108.50;;;10.68;100.00
38812;BME280;24553;51.640;-0.752;2023-02-21T10:17:32;101111.44;;;10.82;100.00
38812;BME280;24553;51.640;-0.752;2023-02-21T10:20:22;101119.03;;;10.85;100.00
38812;BME280;24553;51.640;-0.752;2023-02-21T10:22:51;101110.41;;;10.83;100.00
38812;BME280;24553;51.640;-0.752;2023-02-21T10:27:49;101107.63;;;10.99;100.00
38812;BME280;24553;51.640;-0.752;2023-02-21T10:30:32;101109.28;;;11.00;100.00
38812;BME280;24553;51.640;-0.752;2023-02-21T10:33:02;101103.03;;;10.93;100.00
38812;BME280;24553;51.640;-0.752;2023-02-21T10:35:32;101106.28;;;10.80;100.00
38812;BME280;24553;51.640;-0.752;2023-02-21T10:37:58;101106.75;;;10.84;100.00
38812;BME280;24553;51.640;-0.752;2023-02-21T10:43:21;101107.16;;;10.73;100.00
38812;BME280;24553;51.640;-0.752;2023-02-21T10:46:14;101110.22;;;10.61;100.00
38812;BME280;24553;51.640;-0.752;2023-02-21T10:48:43;101113.56;;;10.55;100.00
38812;BME280;24553;51.640;-0.752;2023-02-21T10:51:16;101105.56;;;10.63;100.00
38812;BME280;24553;51.640;-0.752;2023-02-21T10:53:52;101111.47;;;10.74;100.00
38812;BME280;24553;51.640;-0.752;2023-02-21T11:03:58;101107.09;;;10.81;100.00
38812;BME280;24553;51.640;-0.752;2023-02-21T11:08:55;101101.28;;;10.85;100.00
38812;BME280;24553;51.640;-0.752;2023-02-21T11:11:31;101101.03;;;10.95;100.00
38812;BME280;24553;51.640;-0.752;2023-02-21T11:14:18;101098.06;;;11.13;100.00
38812;BME280;24553;51.640;-0.752;2023-02-21T11:16:44;101091.50;;;11.24;100.00
38812;BME280;24553;51.640;-0.752;2023-02-21T11:19:13;101088.84;;;11.24;100.00
38812;BME280;24553;51.640;-0.752;2023-02-21T11:21:41;101081.25;;;11.21;100.00
38812;BME280;24553;51.640;-0.752;2023-02-21T11:24:10;101088.19;;;11.22;100.00
38812;BME280;24553;51.640;-0.752;2023-02-21T11:26:43;101085.53;;;11.22;100.00
38812;BME280;24553;51.640;-0.752;2023-02-21T11:29:13;101084.88;;;11.20;100.00
38812;BME280;24553;51.640;-0.752;2023-02-21T11:31:40;101081.25;;;11.21;100.00
38812;BME280;24553;51.640;-0.752;2023-02-21T11:34:08;101078.88;;;11.26;100.00
38812;BME280;24553;51.640;-0.752;2023-02-21T11:36:38;101071.34;;;11.14;100.00
38812;BME280;24553;51.640;-0.752;2023-02-21T11:39:25;101062.94;;;11.26;100.00
38812;BME280;24553;51.640;-0.752;2023-02-21T11:41:57;101059.19;;;11.35;100.00
38812;BME280;24553;51.640;-0.752;2023-02-21T11:44:39;101055.09;;;11.47;100.00
38812;BME280;24553;51.640;-0.752;2023-02-21T11:47:28;101049.22;;;11.52;100.00
38812;BME280;24553;51.640;-0.752;2023-02-21T11:50:20;101049.50;;;11.57;100.00
38812;BME280;24553;51.640;-0.752;2023-02-21T11:52:53;101047.03;;;11.55;100.00
38812;BME280;24553;51.640;-0.752;2023-02-21T11:55:23;101038.13;;;11.63;100.00
38812;BME280;24553;51.640;-0.752;2023-02-21T12:18:57;101016.88;;;11.63;100.00
38812;BME280;24553;51.640;-0.752;2023-02-21T12:24:24;100996.56;;;11.70;100.00
38812;BME280;24553;51.640;-0.752;2023-02-21T12:27:24;100990.22;;;11.86;100.00
38812;BME280;24553;51.640;-0.752;2023-02-21T12:38:26;100970.88;;;11.92;100.00
38812;BME280;24553;51.640;-0.752;2023-02-21T12:41:20;100971.06;;;12.12;100.00
38812;BME280;24553;51.640;-0.752;2023-02-21T12:49:23;100967.59;;;12.12;100.00
38812;BME280;24553;51.640;-0.752;2023-02-21T12:51:55;100954.19;;;12.20;100.00
38812;BME280;24553;51.640;-0.752;2023-02-21T12:54:48;100952.03;;;12.30;100.00
38812;BME280;24553;51.640;-0.752;2023-02-21T12:57:20;100950.91;;;12.39;100.00
38812;BME280;24553;51.640;-0.752;2023-02-21T13:00:02;100951.00;;;12.31;100.00
38812;BME280;24553;51.640;-0.752;2023-02-21T13:05:36;100944.06;;;12.09;100.00
38812;BME280;24553;51.640;-0.752;2023-02-21T13:08:27;100941.88;;;11.97;100.00
38812;BME280;24553;51.640;-0.752;2023-02-21T13:11:08;100936.78;;;11.96;100.00
38812;BME280;24553;51.640;-0.752;2023-02-21T13:13:36;100933.19;;;12.04;100.00
38812;BME280;24553;51.640;-0.752;2023-02-21T13:16:08;100928.81;;;11.96;100.00
38812;BME280;24553;51.640;-0.752;2023-02-21T13:18:54;100922.59;;;12.10;100.00
38812;BME280;24553;51.640;-0.752;2023-02-21T13:24:14;100911.72;;;12.05;100.00
38812;BME280;24553;51.640;-0.752;2023-02-21T13:29:43;100898.06;;;12.08;100.00
38812;BME280;24553;51.640;-0.752;2023-02-21T13:32:12;100904.06;;;11.95;100.00
38812;BME280;24553;51.640;-0.752;2023-02-21T13:34:44;100896.28;;;11.94;100.00
38812;BME280;24553;51.640;-0.752;2023-02-21T13:37:18;100894.81;;;11.91;100.00
38812;BME280;24553;51.640;-0.752;2023-02-21T13:40:06;100891.34;;;11.91;100.00
38812;BME280;24553;51.640;-0.752;2023-02-21T13:42:40;100890.16;;;11.93;100.00
38812;BME280;24553;51.640;-0.752;2023-02-21T13:55:35;100864.72;;;12.06;100.00
38812;BME280;24553;51.640;-0.752;2023-02-21T14:08:11;100854.69;;;12.08;100.00
38812;BME280;24553;51.640;-0.752;2023-02-21T14:10:53;100852.28;;;12.13;100.00
38812;BME280;24553;51.640;-0.752;2023-02-21T14:13:20;100845.75;;;12.15;100.00
38812;BME280;24553;51.640;-0.752;2023-02-21T14:15:49;100842.75;;;12.18;100.00
38812;BME280;24553;51.640;-0.752;2023-02-21T14:18:20;100844.19;;;12.21;100.00
38812;BME280;24553;51.640;-0.752;2023-02-21T14:20:50;100827.78;;;12.17;100.00
38812;BME280;24553;51.640;-0.752;2023-02-21T14:23:18;100839.78;;;12.07;100.00
38812;BME280;24553;51.640;-0.752;2023-02-21T14:25:56;100837.03;;;12.00;100.00
38812;BME280;24553;51.640;-0.752;2023-02-21T14:37:23;100819.19;;;12.15;100.00
38812;BME280;24553;51.640;-0.752;2023-02-21T14:49:03;100809.50;;;12.08;100.00
38812;BME280;24553;51.640;-0.752;2023-02-21T15:02:52;100817.63;;;11.56;100.00
38812;BME280;24553;51.640;-0.752;2023-02-21T15:05:29;100819.19;;;11.51;100.00
38812;BME280;24553;51.640;-0.752;2023-02-21T15:08:13;100813.63;;;11.46;100.00
38812;BME280;24553;51.640;-0.752;2023-02-21T15:10:50;100812.06;;;11.51;100.00
38812;BME280;24553;51.640;-0.752;2023-02-21T15:13:33;100806.38;;;11.54;100.00
38812;BME280;24553;51.640;-0.752;2023-02-21T15:16:06;100801.19;;;11.68;100.00
38812;BME280;24553;51.640;-0.752;2023-02-21T15:18:34;100805.28;;;11.70;100.00
38812;BME280;24553;51.640;-0.752;2023-02-21T15:23:27;100796.38;;;11.78;100.00
38812;BME280;24553;51.640;-0.752;2023-02-21T15:25:55;100788.16;;;11.73;100.00
38812;BME280;24553;51.640;-0.752;2023-02-21T15:31:02;100779.72;;;11.69;100.00